sensor_id;sensor_type;location;lat;lon;timestamp;pressure;altitude;pressure_sealevel;temperature;humidity
63006;BME280;53704;52.532;6.426;2023-03-26T00:01:17;100631.47;;;6.55;100.00
63006;BME280;53704;52.532;6.426;2023-03-26T00:03:43;100635.53;;;6.59;100.00
63006;BME280;53704;52.532;6.426;2023-03-26T00:06:13;100636.28;;;6.51;100.00
63006;BME280;53704;52.532;6.426;2023-03-26T00:08:41;100651.31;;;6.52;100.00
63006;BME280;53704;52.532;6.426;2023-03-26T00:11:08;100644.97;;;6.63;100.00
63006;BME280;53704;52.532;6.426;2023-03-26T00:13:35;100638.66;;;6.64;100.00
63006;BME280;53704;52.532;6.426;2023-03-26T00:16:01;100643.00;;;6.56;100.00
63006;BME280;53704;52.532;6.426;2023-03-26T00:18:28;100647.09;;;6.69;100.00
63006;BME280;53704;52.532;6.426;2023-03-26T00:21:01;100646.94;;;6.71;100.00
63006;BME280;53704;52.532;6.426;2023-03-26T00:23:27;100639.66;;;6.44;100.00
63006;BME280;53704;52.532;6.426;2023-03-26T00:25:54;100642.19;;;6.45;100.00
63006;BME280;53704;52.532;6.426;2023-03-26T00:28:21;100640.63;;;6.43;100.00
63006;BME280;53704;52.532;6.426;2023-03-26T00:30:56;100643.59;;;6.40;100.00
63006;BME280;53704;52.532;6.426;2023-03-26T00:33:21;100652.03;;;6.35;100.00
63006;BME280;53704;52.532;6.426;2023-03-26T00:35:51;100648.94;;;6.49;100.00
63006;BME280;53704;52.532;6.426;2023-03-26T00:38:18;100647.81;;;6.52;100.00
63006;BME280;53704;52.532;6.426;2023-03-26T00:40:44;100657.09;;;6.48;100.00
63006;BME280;53704;52.532;6.426;2023-03-26T00:43:12;100626.16;;;6.45;100.00
63006;BME280;53704;52.532;6.426;2023-03-26T00:45:49;100643.84;;;6.56;100.00
63006;BME280;53704;52.532;6.426;2023-03-26T00:48:16;100647.09;;;6.40;100.00
63006;BME280;53704;52.532;6.426;2023-03-26T00:50:43;100650.75;;;6.49;100.00
63006;BME280;53704;52.532;6.426;2023-03-26T00:53:10;100654.56;;;6.46;100.00
63006;BME280;53704;52.532;6.426;2023-03-26T00:55:39;100640.34;;;6.56;100.00
63006;BME280;53704;52.532;6.426;2023-03-26T00:58:05;100636.41;;;6.60;100.00
63006;BME280;53704;52.532;6.426;2023-03-26T01:00:37;100632.28;;;6.65;100.00
63006;BME280;53704;52.532;6.426;2023-03-26T01:03:04;100635.25;;;6.72;100.00
63006;BME280;53704;52.532;6.426;2023-03-26T01:10:43;100621.34;;;6.59;100.00
63006;BME280;53704;52.532;6.426;2023-03-26T01:13:22;100615.44;;;6.55;100.00
63006;BME280;53704;52.532;6.426;2023-03-26T01:15:48;100618.50;;;6.60;100.00
63006;BME280;53704;52.532;6.426;2023-03-26T01:18:24;100611.88;;;6.55;100.00
63006;BME280;53704;52.532;6.426;2023-03-26T01:20:53;100606.97;;;6.60;100.00
63006;BME280;53704;52.532;6.426;2023-03-26T01:23:36;100599.63;;;6.72;100.00
63006;BME280;53704;52.532;6.426;2023-03-26T01:28:37;100602.31;;;6.62;100.00
63006;BME280;53704;52.532;6.426;2023-03-26T01:31:46;100602.47;;;6.60;100.00
63006;BME280;53704;52.532;6.426;2023-03-26T01:40:20;100594.59;;;6.49;100.00
63006;BME280;53704;52.532;6.426;2023-03-26T01:45:37;100583.75;;;6.60;100.00
63006;BME280;53704;52.532;6.426;2023-03-26T01:48:06;100586.19;;;6.44;100.00
63006;BME280;53704;52.532;6.426;2023-03-26T01:50:32;100581.13;;;6.41;100.00
63006;BME280;53704;52.532;6.426;2023-03-26T01:52:58;100572.94;;;6.52;100.00
63006;BME280;53704;52.532;6.426;2023-03-26T01:55:29;100575.75;;;6.41;100.00
63006;BME280;53704;52.532;6.426;2023-03-26T01:58:11;100568.28;;;6.44;100.00
63006;BME280;53704;52.532;6.426;2023-03-26T02:00:47;100569.69;;;6.48;100.00
63006;BME280;53704;52.532;6.426;2023-03-26T02:08:36;100564.50;;;6.47;100.00
63006;BME280;53704;52.532;6.426;2023-03-26T02:11:06;100568.84;;;6.38;100.00
63006;BME280;53704;52.532;6.426;2023-03-26T02:13:38;100558.72;;;6.42;100.00
63006;BME280;53704;52.532;6.426;2023-03-26T02:16:06;100554.28;;;6.70;100.00
63006;BME280;53704;52.532;6.426;2023-03-26T02:18:32;100554.16;;;6.72;100.00
63006;BME280;53704;52.532;6.426;2023-03-26T02:21:23;100558.66;;;6.71;100.00
63006;BME280;53704;52.532;6.426;2023-03-26T02:23:52;100558.09;;;6.77;100.00
63006;BME280;53704;52.532;6.426;2023-03-26T02:26:23;100552.53;;;6.41;100.00
63006;BME280;53704;52.532;6.426;2023-03-26T02:28:48;100536.44;;;6.70;100.00
63006;BME280;53704;52.532;6.426;2023-03-26T02:31:14;100536.19;;;6.54;100.00
63006;BME280;53704;52.532;6.426;2023-03-26T02:33:41;100534.78;;;6.40;100.00
63006;BME280;53704;52.532;6.426;2023-03-26T02:36:09;100536.88;;;6.56;100.00
63006;BME280;53704;52.532;6.426;2023-03-26T02:38:36;100531.81;;;6.63;100.00
63006;BME280;53704;52.532;6.426;2023-03-26T02:41:03;100529.50;;;6.11;100.00
63006;BME280;53704;52.532;6.426;2023-03-26T02:43:29;100522.84;;;6.34;100.00
63006;BME280;53704;52.532;6.426;2023-03-26T02:45:55;100528.28;;;6.52;100.00
63006;BME280;53704;52.532;6.426;2023-03-26T02:48:20;100533.00;;;6.31;100.00
63006;BME280;53704;52.532;6.426;2023-03-26T02:50:46;100522.66;;;6.56;100.00
63006;BME280;53704;52.532;6.426;2023-03-26T02:53:15;100522.31;;;6.21;100.00
63006;BME280;53704;52.532;6.426;2023-03-26T02:55:40;100518.09;;;5.99;100.00
63006;BME280;53704;52.532;6.426;2023-03-26T02:58:06;100523.56;;;6.27;100.00
63006;BME280;53704;52.532;6.426;2023-03-26T03:00:32;100521.25;;;6.61;100.00
63006;BME280;53704;52.532;6.426;2023-03-26T03:02:58;100519.69;;;6.59;100.00
63006;BME280;53704;52.532;6.426;2023-03-26T03:05:28;100513.97;;;6.44;100.00
63006;BME280;53704;52.532;6.426;2023-03-26T03:07:56;100517.94;;;6.30;100.00
63006;BME280;53704;52.532;6.426;2023-03-26T03:10:26;100509.72;;;6.51;100.00
63006;BME280;53704;52.532;6.426;2023-03-26T03:12:52;100505.38;;;6.40;100.00
63006;BME280;53704;52.532;6.426;2023-03-26T03:15:18;100509.16;;;6.47;100.00
63006;BME280;53704;52.532;6.426;2023-03-26T03:17:43;100502.28;;;6.45;100.00
63006;BME280;53704;52.532;6.426;2023-03-26T03:20:09;100499.19;;;6.40;100.00
63006;BME280;53704;52.532;6.426;2023-03-26T03:22:35;100502.50;;;6.14;100.00
63006;BME280;53704;52.532;6.426;2023-03-26T03:25:01;100509.38;;;6.16;100.00
63006;BME280;53704;52.532;6.426;2023-03-26T03:27:27;100492.19;;;6.29;100.00
63006;BME280;53704;52.532;6.426;2023-03-26T03:29:52;100496.56;;;6.20;100.00
63006;BME280;53704;52.532;6.426;2023-03-26T03:32:20;100490.66;;;6.16;100.00
63006;BME280;53704;52.532;6.426;2023-03-26T03:34:47;100481.63;;;6.27;100.00
63006;BME280;53704;52.532;6.426;2023-03-26T03:37:15;100476.50;;;5.96;100.00
63006;BME280;53704;52.532;6.426;2023-03-26T03:39:41;100472.69;;;5.60;100.00
63006;BME280;53704;52.532;6.426;2023-03-26T03:42:06;100474.66;;;5.68;100.00
63006;BME280;53704;52.532;6.426;2023-03-26T03:44:32;100483.50;;;5.68;100.00
63006;BME280;53704;52.532;6.426;2023-03-26T03:46:57;100477.47;;;5.66;100.00
63006;BME280;53704;52.532;6.426;2023-03-26T03:49:22;100478.28;;;5.96;100.00
63006;BME280;53704;52.532;6.426;2023-03-26T03:51:48;100475.34;;;5.70;100.00
63006;BME280;53704;52.532;6.426;2023-03-26T03:54:13;100489.53;;;5.41;100.00
63006;BME280;53704;52.532;6.426;2023-03-26T03:56:39;100475.03;;;5.34;100.00
63006;BME280;53704;52.532;6.426;2023-03-26T03:59:04;100477.75;;;5.73;100.00
63006;BME280;53704;52.532;6.426;2023-03-26T04:01:30;100484.03;;;5.91;100.00
63006;BME280;53704;52.532;6.426;2023-03-26T04:03:57;100478.88;;;6.00;100.00
63006;BME280;53704;52.532;6.426;2023-03-26T04:06:23;100483.66;;;5.67;100.00
63006;BME280;53704;52.532;6.426;2023-03-26T04:08:49;100485.19;;;5.50;100.00
63006;BME280;53704;52.532;6.426;2023-03-26T04:11:15;100485.88;;;5.52;100.00
63006;BME280;53704;52.532;6.426;2023-03-26T04:13:40;100483.31;;;5.21;100.00
63006;BME280;53704;52.532;6.426;2023-03-26T04:16:06;100491.97;;;5.03;100.00
63006;BME280;53704;52.532;6.426;2023-03-26T04:18:32;100485.09;;;5.11;100.00
63006;BME280;53704;52.532;6.426;2023-03-26T04:20:57;100482.09;;;5.64;100.00
63006;BME280;53704;52.532;6.426;2023-03-26T04:23:27;100484.06;;;5.52;100.00
63006;BME280;53704;52.532;6.426;2023-03-26T04:25:53;100479.84;;;5.59;100.00
63006;BME280;53704;52.532;6.426;2023-03-26T04:30:55;100475.38;;;5.60;100.00
63006;BME280;53704;52.532;6.426;2023-03-26T04:33:26;100477.34;;;5.68;100.00
63006;BME280;53704;52.532;6.426;2023-03-26T04:35:52;100476.19;;;5.51;100.00
63006;BME280;53704;52.532;6.426;2023-03-26T04:38:18;100474.91;;;5.35;100.00
63006;BME280;53704;52.532;6.426;2023-03-26T04:40:44;100472.81;;;5.49;100.00
63006;BME280;53704;52.532;6.426;2023-03-26T04:43:14;100459.88;;;5.73;100.00
63006;BME280;53704;52.532;6.426;2023-03-26T04:45:42;100463.38;;;5.93;100.00
63006;BME280;53704;52.532;6.426;2023-03-26T04:48:10;100456.78;;;6.07;100.00
63006;BME280;53704;52.532;6.426;2023-03-26T04:50:40;100462.00;;;5.70;100.00
63006;BME280;53704;52.532;6.426;2023-03-26T04:53:06;100460.84;;;5.72;100.00
63006;BME280;53704;52.532;6.426;2023-03-26T04:55:54;100455.69;;;5.80;100.00
63006;BME280;53704;52.532;6.426;2023-03-26T04:58:21;100455.97;;;5.77;100.00
63006;BME280;53704;52.532;6.426;2023-03-26T05:00:54;100454.53;;;5.73;100.00
63006;BME280;53704;52.532;6.426;2023-03-26T05:03:20;100457.22;;;5.54;100.00
63006;BME280;53704;52.532;6.426;2023-03-26T05:05:45;100449.63;;;5.49;100.00
63006;BME280;53704;52.532;6.426;2023-03-26T05:08:11;100451.72;;;5.85;100.00
63006;BME280;53704;52.532;6.426;2023-03-26T05:10:36;100434.44;;;5.98;100.00
63006;BME280;53704;52.532;6.426;2023-03-26T05:13:01;100446.25;;;5.76;100.00
63006;BME280;53704;52.532;6.426;2023-03-26T05:15:27;100443.00;;;6.02;100.00
63006;BME280;53704;52.532;6.426;2023-03-26T05:17:52;100440.31;;;6.02;100.00
63006;BME280;53704;52.532;6.426;2023-03-26T05:20:26;100450.47;;;5.69;100.00
63006;BME280;53704;52.532;6.426;2023-03-26T05:22:52;100445.97;;;5.79;100.00
63006;BME280;53704;52.532;6.426;2023-03-26T05:25:18;100437.38;;;6.05;100.00
63006;BME280;53704;52.532;6.426;2023-03-26T05:27:44;100430.31;;;5.94;100.00
63006;BME280;53704;52.532;6.426;2023-03-26T05:30:13;100434.81;;;6.13;100.00
63006;BME280;53704;52.532;6.426;2023-03-26T05:32:39;100429.09;;;5.98;100.00
63006;BME280;53704;52.532;6.426;2023-03-26T05:35:05;100425.44;;;5.80;100.00
63006;BME280;53704;52.532;6.426;2023-03-26T05:37:32;100418.41;;;5.89;100.00
63006;BME280;53704;52.532;6.426;2023-03-26T05:39:57;100429.78;;;5.81;100.00
63006;BME280;53704;52.532;6.426;2023-03-26T05:42:24;100426.56;;;5.87;100.00
63006;BME280;53704;52.532;6.426;2023-03-26T05:44:50;100428.41;;;5.96;100.00
63006;BME280;53704;52.532;6.426;2023-03-26T05:47:15;100431.03;;;6.16;100.00
63006;BME280;53704;52.532;6.426;2023-03-26T05:49:41;100423.69;;;6.28;100.00
63006;BME280;53704;52.532;6.426;2023-03-26T05:52:06;100417.94;;;6.13;100.00
63006;BME280;53704;52.532;6.426;2023-03-26T05:54:32;100407.09;;;6.14;100.00
63006;BME280;53704;52.532;6.426;2023-03-26T05:56:57;100404.09;;;6.27;100.00
63006;BME280;53704;52.532;6.426;2023-03-26T05:59:23;100417.56;;;6.36;100.00
63006;BME280;53704;52.532;6.426;2023-03-26T06:01:49;100410.13;;;6.39;100.00
63006;BME280;53704;52.532;6.426;2023-03-26T06:04:16;100410.94;;;5.92;100.00
63006;BME280;53704;52.532;6.426;2023-03-26T06:06:42;100412.38;;;5.96;100.00
63006;BME280;53704;52.532;6.426;2023-03-26T06:09:09;100407.50;;;6.20;100.00
63006;BME280;53704;52.532;6.426;2023-03-26T06:11:38;100398.53;;;5.91;100.00
63006;BME280;53704;52.532;6.426;2023-03-26T06:14:06;100393.94;;;5.74;100.00
63006;BME280;53704;52.532;6.426;2023-03-26T06:16:32;100381.00;;;5.69;100.00
63006;BME280;53704;52.532;6.426;2023-03-26T06:18:57;100381.31;;;5.76;100.00
63006;BME280;53704;52.532;6.426;2023-03-26T06:21:26;100391.66;;;6.08;100.00
63006;BME280;53704;52.532;6.426;2023-03-26T06:23:53;100380.56;;;6.03;100.00
63006;BME280;53704;52.532;6.426;2023-03-26T06:26:18;100387.03;;;6.01;100.00
63006;BME280;53704;52.532;6.426;2023-03-26T06:28:44;100382.56;;;6.29;100.00
63006;BME280;53704;52.532;6.426;2023-03-26T06:31:10;100374.66;;;6.37;100.00
63006;BME280;53704;52.532;6.426;2023-03-26T06:33:36;100382.69;;;6.37;100.00
63006;BME280;53704;52.532;6.426;2023-03-26T06:36:01;100378.13;;;6.47;100.00
63006;BME280;53704;52.532;6.426;2023-03-26T06:38:26;100382.66;;;6.47;100.00
63006;BME280;53704;52.532;6.426;2023-03-26T06:40:52;100383.94;;;6.70;100.00
63006;BME280;53704;52.532;6.426;2023-03-26T06:43:18;100389.22;;;6.80;100.00
63006;BME280;53704;52.532;6.426;2023-03-26T06:45:43;100392.72;;;6.53;100.00
63006;BME280;53704;52.532;6.426;2023-03-26T06:48:09;100387.16;;;6.74;100.00
63006;BME280;53704;52.532;6.426;2023-03-26T06:50:34;100390.47;;;6.58;100.00
63006;BME280;53704;52.532;6.426;2023-03-26T06:53:00;100388.16;;;6.45;100.00
63006;BME280;53704;52.532;6.426;2023-03-26T06:55:26;100387.06;;;6.66;100.00
63006;BME280;53704;52.532;6.426;2023-03-26T06:57:53;100379.13;;;6.46;100.00
63006;BME280;53704;52.532;6.426;2023-03-26T07:00:20;100375.97;;;6.33;100.00
63006;BME280;53704;52.532;6.426;2023-03-26T07:02:45;100378.44;;;6.44;100.00
63006;BME280;53704;52.532;6.426;2023-03-26T07:05:12;100372.69;;;6.39;100.00
63006;BME280;53704;52.532;6.426;2023-03-26T07:07:38;100368.94;;;6.60;100.00
63006;BME280;53704;52.532;6.426;2023-03-26T07:10:04;100366.84;;;6.54;100.00
63006;BME280;53704;52.532;6.426;2023-03-26T07:12:30;100362.47;;;6.52;100.00
63006;BME280;53704;52.532;6.426;2023-03-26T07:14:55;100361.81;;;6.50;100.00
63006;BME280;53704;52.532;6.426;2023-03-26T07:17:21;100355.47;;;6.51;100.00
63006;BME280;53704;52.532;6.426;2023-03-26T07:19:46;100361.00;;;6.40;100.00
63006;BME280;53704;52.532;6.426;2023-03-26T07:22:23;100350.16;;;6.42;100.00
63006;BME280;53704;52.532;6.426;2023-03-26T07:24:49;100346.19;;;6.46;100.00
63006;BME280;53704;52.532;6.426;2023-03-26T07:27:29;100347.22;;;6.35;100.00
63006;BME280;53704;52.532;6.426;2023-03-26T07:32:36;100343.75;;;6.52;100.00
63006;BME280;53704;52.532;6.426;2023-03-26T07:35:13;100349.34;;;6.59;100.00
63006;BME280;53704;52.532;6.426;2023-03-26T07:45:52;100339.09;;;6.55;100.00
63006;BME280;53704;52.532;6.426;2023-03-26T07:48:20;100339.25;;;6.53;100.00
63006;BME280;53704;52.532;6.426;2023-03-26T07:50:46;100335.59;;;6.54;100.00
63006;BME280;53704;52.532;6.426;2023-03-26T07:53:13;100336.25;;;6.66;100.00
63006;BME280;53704;52.532;6.426;2023-03-26T08:07:12;100339.72;;;6.48;100.00
63006;BME280;53704;52.532;6.426;2023-03-26T08:12:26;100351.22;;;6.77;100.00
63006;BME280;53704;52.532;6.426;2023-03-26T08:15:17;100345.63;;;6.70;100.00
63006;BME280;53704;52.532;6.426;2023-03-26T08:20:37;100352.75;;;6.79;100.00
63006;BME280;53704;52.532;6.426;2023-03-26T08:23:22;100357.81;;;7.00;100.00
63006;BME280;53704;52.532;6.426;2023-03-26T08:26:09;100354.06;;;6.93;100.00
63006;BME280;53704;52.532;6.426;2023-03-26T08:31:36;100351.69;;;7.08;100.00
63006;BME280;53704;52.532;6.426;2023-03-26T08:34:03;100348.41;;;6.96;100.00
63006;BME280;53704;52.532;6.426;2023-03-26T08:36:29;100345.00;;;7.04;100.00
63006;BME280;53704;52.532;6.426;2023-03-26T08:38:56;100341.06;;;6.98;100.00
63006;BME280;53704;52.532;6.426;2023-03-26T08:44:47;100339.75;;;6.84;100.00
63006;BME280;53704;52.532;6.426;2023-03-26T08:53:35;100336.66;;;7.07;100.00
63006;BME280;53704;52.532;6.426;2023-03-26T09:14:02;100334.22;;;7.58;100.00
63006;BME280;53704;52.532;6.426;2023-03-26T09:39:15;100332.88;;;7.36;100.00
63006;BME280;53704;52.532;6.426;2023-03-26T09:52:56;100333.75;;;7.45;100.00
63006;BME280;53704;52.532;6.426;2023-03-26T09:59:27;100343.50;;;7.10;100.00
63006;BME280;53704;52.532;6.426;2023-03-26T10:02:02;100341.84;;;7.27;100.00
63006;BME280;53704;52.532;6.426;2023-03-26T10:05:11;100343.53;;;7.28;100.00
63006;BME280;53704;52.532;6.426;2023-03-26T10:07:55;100343.59;;;7.18;100.00
63006;BME280;53704;52.532;6.426;2023-03-26T10:35:46;100370.81;;;7.49;100.00
63006;BME280;53704;52.532;6.426;2023-03-26T10:40:58;100361.91;;;7.67;100.00
63006;BME280;53704;52.532;6.426;2023-03-26T10:52:39;100361.38;;;7.63;100.00
63006;BME280;53704;52.532;6.426;2023-03-26T10:55:45;100366.53;;;7.83;100.00
63006;BME280;53704;52.532;6.426;2023-03-26T10:58:24;100373.63;;;8.18;100.00
63006;BME280;53704;52.532;6.426;2023-03-26T11:01:02;100373.38;;;8.38;100.00
63006;BME280;53704;52.532;6.426;2023-03-26T11:06:03;100369.25;;;8.17;100.00
63006;BME280;53704;52.532;6.426;2023-03-26T11:08:49;100369.94;;;8.19;100.00
63006;BME280;53704;52.532;6.426;2023-03-26T11:13:56;100370.47;;;8.23;100.00
63006;BME280;53704;52.532;6.426;2023-03-26T11:26:55;100381.88;;;8.59;100.00
63006;BME280;53704;52.532;6.426;2023-03-26T11:32:14;100378.91;;;8.36;100.00
63006;BME280;53704;52.532;6.426;2023-03-26T11:35:02;100378.47;;;8.49;100.00
63006;BME280;53704;52.532;6.426;2023-03-26T11:37:55;100374.59;;;8.78;100.00
63006;BME280;53704;52.532;6.426;2023-03-26T11:40:28;100377.59;;;8.83;100.00
63006;BME280;53704;52.532;6.426;2023-03-26T11:43:00;100360.22;;;9.03;100.00
63006;BME280;53704;52.532;6.426;2023-03-26T11:45:30;100369.91;;;8.45;100.00
63006;BME280;53704;52.532;6.426;2023-03-26T11:48:05;100364.41;;;8.47;100.00
63006;BME280;53704;52.532;6.426;2023-03-26T11:50:35;100367.19;;;8.80;100.00
63006;BME280;53704;52.532;6.426;2023-03-26T11:53:12;100377.50;;;8.58;100.00
63006;BME280;53704;52.532;6.426;2023-03-26T11:55:45;100377.59;;;8.40;100.00
63006;BME280;53704;52.532;6.426;2023-03-26T11:58:38;100377.81;;;8.47;100.00
63006;BME280;53704;52.532;6.426;2023-03-26T12:01:16;100375.63;;;8.50;100.00
63006;BME280;53704;52.532;6.426;2023-03-26T12:03:58;100380.81;;;8.44;100.00
63006;BME280;53704;52.532;6.426;2023-03-26T12:06:28;100376.97;;;8.46;100.00
63006;BME280;53704;52.532;6.426;2023-03-26T12:08:54;100379.22;;;8.67;100.00
63006;BME280;53704;52.532;6.426;2023-03-26T12:11:30;100382.44;;;8.37;100.00
63006;BME280;53704;52.532;6.426;2023-03-26T12:14:01;100377.66;;;8.48;100.00
63006;BME280;53704;52.532;6.426;2023-03-26T12:16:28;100373.81;;;8.51;100.00
63006;BME280;53704;52.532;6.426;2023-03-26T12:21:30;100381.91;;;8.33;100.00
63006;BME280;53704;52.532;6.426;2023-03-26T12:24:24;100388.09;;;7.99;100.00
63006;BME280;53704;52.532;6.426;2023-03-26T12:26:56;100386.03;;;8.19;100.00
63006;BME280;53704;52.532;6.426;2023-03-26T12:29:25;100391.06;;;8.22;100.00
63006;BME280;53704;52.532;6.426;2023-03-26T12:32:12;100391.41;;;7.93;100.00
63006;BME280;53704;52.532;6.426;2023-03-26T12:34:38;100388.13;;;7.81;100.00
63006;BME280;53704;52.532;6.426;2023-03-26T12:37:06;100393.75;;;7.96;100.00
63006;BME280;53704;52.532;6.426;2023-03-26T12:39:39;100390.94;;;7.97;100.00
63006;BME280;53704;52.532;6.426;2023-03-26T12:42:24;100392.91;;;8.48;100.00
63006;BME280;53704;52.532;6.426;2023-03-26T12:44:50;100396.31;;;8.32;100.00
63006;BME280;53704;52.532;6.426;2023-03-26T12:47:24;100395.47;;;8.31;100.00
63006;BME280;53704;52.532;6.426;2023-03-26T12:49:51;100397.44;;;8.21;100.00
63006;BME280;53704;52.532;6.426;2023-03-26T12:54:54;100396.56;;;7.86;100.00
63006;BME280;53704;52.532;6.426;2023-03-26T12:57:23;100396.56;;;7.86;100.00
63006;BME280;53704;52.532;6.426;2023-03-26T13:03:16;100409.75;;;8.06;100.00
63006;BME280;53704;52.532;6.426;2023-03-26T13:08:45;100407.88;;;8.06;100.00
63006;BME280;53704;52.532;6.426;2023-03-26T13:16:34;100411.00;;;7.93;100.00
63006;BME280;53704;52.532;6.426;2023-03-26T13:19:30;100420.41;;;7.97;100.00
63006;BME280;53704;52.532;6.426;2023-03-26T13:28:03;100424.13;;;7.60;100.00
63006;BME280;53704;52.532;6.426;2023-03-26T13:30:36;100421.66;;;7.85;100.00
63006;BME280;53704;52.532;6.426;2023-03-26T13:33:42;100423.72;;;7.91;100.00
63006;BME280;53704;52.532;6.426;2023-03-26T13:38:57;100429.63;;;7.77;100.00
63006;BME280;53704;52.532;6.426;2023-03-26T13:44:26;100429.13;;;7.55;100.00
63006;BME280;53704;52.532;6.426;2023-03-26T13:47:01;100436.50;;;7.79;100.00
63006;BME280;53704;52.532;6.426;2023-03-26T13:49:50;100441.19;;;7.77;100.00
63006;BME280;53704;52.532;6.426;2023-03-26T13:52:37;100429.84;;;7.84;100.00
63006;BME280;53704;52.532;6.426;2023-03-26T13:55:18;100439.69;;;7.75;100.00
63006;BME280;53704;52.532;6.426;2023-03-26T14:09:14;100467.38;;;7.84;100.00
63006;BME280;53704;52.532;6.426;2023-03-26T14:16:58;100472.59;;;7.31;100.00
63006;BME280;53704;52.532;6.426;2023-03-26T14:19:32;100477.34;;;7.10;100.00
63006;BME280;53704;52.532;6.426;2023-03-26T14:41:40;100489.81;;;7.01;100.00
63006;BME280;53704;52.532;6.426;2023-03-26T14:50:45;100497.84;;;7.01;100.00
63006;BME280;53704;52.532;6.426;2023-03-26T14:52:53;100500.63;;;7.09;100.00
63006;BME280;53704;52.532;6.426;2023-03-26T15:01:03;100505.63;;;7.22;100.00
63006;BME280;53704;52.532;6.426;2023-03-26T15:06:25;100515.94;;;7.17;100.00
63006;BME280;53704;52.532;6.426;2023-03-26T15:28:04;100544.88;;;6.66;100.00
63006;BME280;53704;52.532;6.426;2023-03-26T15:39:37;100559.59;;;6.80;100.00
63006;BME280;53704;52.532;6.426;2023-03-26T15:42:22;100564.56;;;6.75;100.00
63006;BME280;53704;52.532;6.426;2023-03-26T15:47:36;100574.63;;;6.91;100.00
63006;BME280;53704;52.532;6.426;2023-03-26T15:55:42;100583.25;;;6.94;100.00
63006;BME280;53704;52.532;6.426;2023-03-26T15:58:28;100592.41;;;6.92;99.33
63006;BME280;53704;52.532;6.426;2023-03-26T16:03:53;100593.09;;;6.94;99.99
63006;BME280;53704;52.532;6.426;2023-03-26T16:09:22;100609.38;;;6.63;97.60
63006;BME280;53704;52.532;6.426;2023-03-26T16:11:56;100609.09;;;6.46;99.70
63006;BME280;53704;52.532;6.426;2023-03-26T16:17:01;100630.06;;;6.41;100.00
63006;BME280;53704;52.532;6.426;2023-03-26T16:27:42;100652.59;;;6.09;98.82
63006;BME280;53704;52.532;6.426;2023-03-26T16:30:28;100659.13;;;5.86;96.63
63006;BME280;53704;52.532;6.426;2023-03-26T16:33:12;100663.78;;;5.84;97.55
63006;BME280;53704;52.532;6.426;2023-03-26T16:36:13;100663.72;;;5.74;99.42
63006;BME280;53704;52.532;6.426;2023-03-26T16:44:10;100671.66;;;5.95;100.00
63006;BME280;53704;52.532;6.426;2023-03-26T16:49:25;100683.72;;;5.79;100.00
63006;BME280;53704;52.532;6.426;2023-03-26T16:57:24;100703.41;;;5.48;98.82
63006;BME280;53704;52.532;6.426;2023-03-26T17:02:31;100724.53;;;5.30;100.00
63006;BME280;53704;52.532;6.426;2023-03-26T17:05:37;100714.81;;;5.19;99.39
63006;BME280;53704;52.532;6.426;2023-03-26T17:08:14;100731.38;;;5.22;100.00
63006;BME280;53704;52.532;6.426;2023-03-26T17:10:53;100731.25;;;5.24;100.00
63006;BME280;53704;52.532;6.426;2023-03-26T17:16:20;100744.22;;;5.29;100.00
63006;BME280;53704;52.532;6.426;2023-03-26T17:21:37;100759.25;;;5.08;100.00
63006;BME280;53704;52.532;6.426;2023-03-26T17:27:19;100769.22;;;5.06;100.00
63006;BME280;53704;52.532;6.426;2023-03-26T17:29:58;100766.34;;;4.98;100.00
63006;BME280;53704;52.532;6.426;2023-03-26T17:32:52;100778.38;;;4.93;100.00
63006;BME280;53704;52.532;6.426;2023-03-26T17:35:43;100777.47;;;5.03;100.00
63006;BME280;53704;52.532;6.426;2023-03-26T17:46:01;100796.03;;;5.05;100.00
63006;BME280;53704;52.532;6.426;2023-03-26T17:48:31;100799.50;;;4.84;100.00
63006;BME280;53704;52.532;6.426;2023-03-26T17:51:05;100807.06;;;4.79;100.00
63006;BME280;53704;52.532;6.426;2023-03-26T17:53:39;100812.38;;;4.79;100.00
63006;BME280;53704;52.532;6.426;2023-03-26T17:56:13;100819.91;;;4.74;100.00
63006;BME280;53704;52.532;6.426;2023-03-26T17:58:42;100829.25;;;4.68;100.00
63006;BME280;53704;52.532;6.426;2023-03-26T18:01:26;100837.75;;;4.62;100.00
63006;BME280;53704;52.532;6.426;2023-03-26T18:03:56;100833.88;;;4.55;100.00
63006;BME280;53704;52.532;6.426;2023-03-26T18:15:00;100856.22;;;4.31;100.00
63006;BME280;53704;52.532;6.426;2023-03-26T18:17:38;100861.66;;;4.30;100.00
63006;BME280;53704;52.532;6.426;2023-03-26T18:20:06;100868.47;;;4.23;100.00
63006;BME280;53704;52.532;6.426;2023-03-26T18:22:33;100876.84;;;4.18;100.00
63006;BME280;53704;52.532;6.426;2023-03-26T18:25:00;100874.41;;;4.15;100.00
63006;BME280;53704;52.532;6.426;2023-03-26T18:27:35;100880.94;;;4.11;100.00
63006;BME280;53704;52.532;6.426;2023-03-26T18:30:14;100896.31;;;4.07;100.00
63006;BME280;53704;52.532;6.426;2023-03-26T18:35:25;100910.47;;;3.96;100.00
63006;BME280;53704;52.532;6.426;2023-03-26T18:37:54;100911.81;;;4.02;100.00
63006;BME280;53704;52.532;6.426;2023-03-26T18:40:24;100914.84;;;3.97;100.00
63006;BME280;53704;52.532;6.426;2023-03-26T18:42:52;100922.22;;;3.94;100.00
63006;BME280;53704;52.532;6.426;2023-03-26T18:47:55;100925.06;;;3.79;100.00
63006;BME280;53704;52.532;6.426;2023-03-26T18:50:41;100930.66;;;3.76;100.00
63006;BME280;53704;52.532;6.426;2023-03-26T18:53:18;100942.38;;;3.74;100.00
63006;BME280;53704;52.532;6.426;2023-03-26T18:55:46;100939.72;;;3.74;100.00
63006;BME280;53704;52.532;6.426;2023-03-26T19:00:51;100949.88;;;3.69;100.00
63006;BME280;53704;52.532;6.426;2023-03-26T19:03:20;100952.13;;;3.62;100.00
63006;BME280;53704;52.532;6.426;2023-03-26T19:05:49;100958.06;;;3.54;100.00
63006;BME280;53704;52.532;6.426;2023-03-26T19:08:16;100955.75;;;3.50;100.00